createdAt,value
2023-02-24T00:00:52.641Z,97587.84
2023-02-24T00:03:23.080Z,97574.28
2023-02-24T00:05:54.602Z,97580.06
2023-02-24T00:08:23.408Z,97570.78
2023-02-24T00:10:54.025Z,97581.88
2023-02-24T00:13:22.654Z,97567.41
2023-02-24T00:16:02.464Z,97571.50
2023-02-24T00:18:33.091Z,97564.84
2023-02-24T00:21:11.713Z,97575.78
2023-02-24T00:23:40.999Z,97561.47
2023-02-24T00:26:13.204Z,97569.91
2023-02-24T00:28:42.661Z,97568.09
2023-02-24T00:31:14.933Z,97568.22
2023-02-24T00:33:46.017Z,97564.84
2023-02-24T00:36:17.581Z,97557.47
2023-02-24T00:38:47.305Z,97559.19
2023-02-24T00:41:22.869Z,97548.25
2023-02-24T00:43:52.645Z,97550.31
2023-02-24T00:46:26.164Z,97538.53
2023-02-24T00:48:56.901Z,97547.25
2023-02-24T00:51:28.490Z,97548.16
2023-02-24T00:53:59.451Z,97542.28
2023-02-24T00:56:31.023Z,97538.09
2023-02-24T00:59:02.097Z,97544.09
2023-02-24T01:01:33.330Z,97532.19
2023-02-24T01:04:11.648Z,97530.56
2023-02-24T01:06:43.623Z,97525.38
2023-02-24T01:09:14.153Z,97525.28
2023-02-24T01:12:08.660Z,97519.44
2023-02-24T01:14:39.882Z,97517.72
2023-02-24T01:17:11.693Z,97520.34
2023-02-24T01:19:41.135Z,97518.56
2023-02-24T01:22:11.847Z,97506.78
2023-02-24T01:24:42.514Z,97513.56
2023-02-24T01:27:14.227Z,97496.75
2023-02-24T01:29:43.852Z,97513.56
2023-02-24T01:32:18.424Z,97507.63
2023-02-24T01:34:48.893Z,97511.06
2023-02-24T01:37:17.424Z,97507.69
2023-02-24T01:39:46.484Z,97490.84
2023-02-24T01:42:20.013Z,97511.97
2023-02-24T01:45:16.945Z,97502.69
2023-02-24T01:47:48.211Z,97499.94
2023-02-24T01:50:18.502Z,97496.56
2023-02-24T01:52:50.230Z,97498.28
2023-02-24T01:55:24.644Z,97485.50
2023-02-24T01:57:56.303Z,97480.47
2023-02-24T02:00:47.563Z,97476.53
2023-02-24T02:03:24.300Z,97485.03
2023-02-24T02:05:56.461Z,97479.81
2023-02-24T02:08:26.355Z,97482.41
2023-02-24T02:10:59.392Z,97481.47
2023-02-24T02:13:36.103Z,97467.97
2023-02-24T02:16:29.340Z,97483.13
2023-02-24T02:19:10.461Z,97465.22
2023-02-24T02:22:07.127Z,97466.91
2023-02-24T02:24:49.977Z,97470.34
2023-02-24T02:27:58.581Z,97462.69
2023-02-24T02:30:55.808Z,97457.59
2023-02-24T02:34:05.993Z,97444.09
2023-02-24T02:36:44.116Z,97450.88
2023-02-24T02:39:17.192Z,97449.16
2023-02-24T02:41:54.673Z,97442.44
2023-02-24T02:44:32.374Z,97441.56
2023-02-24T02:47:05.710Z,97444.94
2023-02-24T02:49:40.335Z,97452.63
2023-02-24T02:52:18.316Z,97449.22
2023-02-24T02:54:52.324Z,97446.69
2023-02-24T02:57:22.876Z,97459.41
2023-02-24T02:59:57.969Z,97445.88
2023-02-24T03:02:31.101Z,97449.03
2023-02-24T03:05:05.642Z,97411.88
2023-02-24T03:07:40.612Z,97443.00
2023-02-24T03:10:17.892Z,97432.84
2023-02-24T03:12:49.622Z,97430.47
2023-02-24T03:15:21.721Z,97427.16
2023-02-24T03:17:57.697Z,97435.66
2023-02-24T03:20:33.640Z,97428.75
2023-02-24T03:23:07.819Z,97419.47
2023-02-24T03:25:44.982Z,97428.97
2023-02-24T03:28:20.546Z,97425.41
2023-02-24T03:30:58.140Z,97421.13
2023-02-24T03:33:31.419Z,97421.16
2023-02-24T03:36:02.115Z,97417.97
2023-02-24T03:38:34.433Z,97407.16
2023-02-24T03:41:03.146Z,97418.84
2023-02-24T03:43:34.360Z,97406.13
2023-02-24T03:46:02.844Z,97407.75
2023-02-24T03:48:32.278Z,97404.28
2023-02-24T03:51:04.454Z,97409.53
2023-02-24T03:53:47.684Z,97407.78
2023-02-24T03:56:30.056Z,97402.19
2023-02-24T03:59:13.337Z,97411.41
2023-02-24T04:01:56.995Z,97419.00
2023-02-24T04:04:31.899Z,97411.34
2023-02-24T04:07:07.627Z,97406.16
2023-02-24T04:09:44.374Z,97402.19
2023-02-24T04:12:20.504Z,97406.53
2023-02-24T04:14:54.913Z,97419.25
2023-02-24T04:17:29.244Z,97404.88
2023-02-24T04:20:09.625Z,97380.28
2023-02-24T04:22:43.108Z,97380.31
2023-02-24T04:25:13.916Z,97407.44
2023-02-24T04:27:44.848Z,97415.06
2023-02-24T04:30:14.857Z,97408.22
2023-02-24T04:32:46.080Z,97406.63
2023-02-24T04:35:17.390Z,97398.72
2023-02-24T04:37:47.934Z,97402.19
2023-02-24T04:40:18.789Z,97389.28
2023-02-24T04:42:50.547Z,97385.88
2023-02-24T04:45:22.429Z,97391.88
2023-02-24T04:47:53.514Z,97393.75
2023-02-24T04:50:25.477Z,97384.28
2023-02-24T04:53:01.397Z,97387.59
2023-02-24T04:55:33.665Z,97384.28
2023-02-24T04:58:03.968Z,97375.78
2023-02-24T05:00:35.597Z,97377.63
2023-02-24T05:03:05.764Z,97380.19
2023-02-24T05:05:35.579Z,97358.09
2023-02-24T05:08:09.511Z,97360.59
2023-02-24T05:10:40.815Z,97359.72
2023-02-24T05:13:11.214Z,97354.63
2023-02-24T05:15:42.405Z,97356.56
2023-02-24T05:18:17.465Z,97352.34
2023-02-24T05:21:11.432Z,97346.53
2023-02-24T05:23:44.834Z,97355.03
2023-02-24T05:26:17.628Z,97351.59
2023-02-24T05:28:49.461Z,97343.13
2023-02-24T05:31:20.820Z,97343.13
2023-02-24T05:33:54.879Z,97337.25
2023-02-24T05:36:24.956Z,97332.22
2023-02-24T05:38:58.261Z,97340.72
2023-02-24T05:41:32.858Z,97328.00
2023-02-24T05:44:05.082Z,97323.88
2023-02-24T05:46:36.533Z,97328.81
2023-02-24T05:49:09.114Z,97333.84
2023-02-24T05:51:43.679Z,97315.28
2023-02-24T05:54:15.645Z,97297.63
2023-02-24T05:56:45.019Z,97319.53
2023-02-24T05:59:18.382Z,97319.66
2023-02-24T06:01:47.355Z,97299.28
2023-02-24T06:04:28.240Z,97311.88
2023-02-24T06:06:56.662Z,97301.16
2023-02-24T06:09:28.614Z,97311.19
2023-02-24T06:11:58.011Z,97306.88
2023-02-24T06:14:28.971Z,97299.31
2023-02-24T06:16:58.275Z,97308.69
2023-02-24T06:19:28.567Z,97313.69
2023-02-24T06:21:58.743Z,97302.81
2023-02-24T06:24:29.542Z,97307.78
2023-02-24T06:27:03.030Z,97301.78
2023-02-24T06:29:32.436Z,97300.88
2023-02-24T06:32:08.931Z,97298.34
2023-02-24T06:34:38.263Z,97296.56
2023-02-24T06:37:08.073Z,97297.59
2023-02-24T06:39:38.975Z,97306.91
2023-02-24T06:42:09.197Z,97303.50
2023-02-24T06:44:40.698Z,97303.38
2023-02-24T06:47:13.267Z,97290.56
2023-02-24T06:49:43.056Z,97285.44
2023-02-24T06:52:19.451Z,97295.41
2023-02-24T06:54:52.994Z,97299.69
2023-02-24T06:57:24.297Z,97298.78
2023-02-24T06:59:56.486Z,97283.66
2023-02-24T07:02:33.568Z,97289.44
2023-02-24T07:05:03.060Z,97302.09
2023-02-24T07:07:32.891Z,97305.47
2023-02-24T07:10:03.612Z,97293.31
2023-02-24T07:12:33.131Z,97313.03
2023-02-24T07:15:04.062Z,97304.59
2023-02-24T07:17:33.066Z,97291.75
2023-02-24T07:20:11.509Z,97301.06
2023-02-24T07:22:40.525Z,97291.69
2023-02-24T07:25:30.890Z,97295.19
2023-02-24T07:28:02.291Z,97288.22
2023-02-24T07:30:33.821Z,97289.88
2023-02-24T07:33:11.557Z,97275.59
2023-02-24T07:35:42.005Z,97277.09
2023-02-24T07:38:19.171Z,97271.06
2023-02-24T07:40:50.136Z,97275.97
2023-02-24T07:43:19.314Z,97264.00
2023-02-24T07:45:49.500Z,97254.69
2023-02-24T07:48:18.441Z,97265.59
2023-02-24T07:50:47.576Z,97259.56
2023-02-24T07:53:17.270Z,97256.94
2023-02-24T07:55:46.996Z,97252.03
2023-02-24T07:58:19.142Z,97250.25
2023-02-24T08:01:01.272Z,97250.09
2023-02-24T08:03:33.535Z,97250.94
2023-02-24T08:06:15.694Z,97245.88
2023-02-24T08:09:00.588Z,97239.09
2023-02-24T08:11:36.013Z,97241.44
2023-02-24T08:14:14.143Z,97244.88
2023-02-24T08:16:44.660Z,97241.47
2023-02-24T08:19:15.415Z,97242.94
2023-02-24T08:21:47.969Z,97241.38
2023-02-24T08:24:20.653Z,97249.94
2023-02-24T08:27:05.205Z,97236.16
2023-02-24T08:29:40.531Z,97250.50
2023-02-24T08:32:11.611Z,97224.34
2023-02-24T08:34:43.870Z,97234.56
2023-02-24T08:37:16.546Z,97220.72
2023-02-24T08:39:46.410Z,97219.47
2023-02-24T08:42:15.556Z,97228.72
2023-02-24T08:44:46.518Z,97215.72
2023-02-24T08:47:21.657Z,97201.59
2023-02-24T08:49:54.322Z,97219.31
2023-02-24T08:52:23.218Z,97206.44
2023-02-24T08:54:59.742Z,97201.19
2023-02-24T08:57:30.019Z,97209.69
2023-02-24T09:00:00.679Z,97208.63
2023-02-24T09:02:29.891Z,97199.78
2023-02-24T09:05:01.038Z,97207.31
2023-02-24T09:07:36.255Z,97184.28
2023-02-24T09:10:07.109Z,97187.38
2023-02-24T09:12:44.032Z,97199.22
2023-02-24T09:15:16.455Z,97198.19
2023-02-24T09:18:01.409Z,97195.09
2023-02-24T09:20:52.814Z,97184.84
2023-02-24T09:23:30.514Z,97172.66
2023-02-24T09:25:59.217Z,97180.47
2023-02-24T09:28:33.631Z,97186.63
2023-02-24T09:31:07.017Z,97183.38
2023-02-24T09:33:42.359Z,97175.72
2023-02-24T09:36:26.086Z,97179.03
2023-02-24T09:39:13.196Z,97162.16
2023-02-24T09:42:26.118Z,97166.53
2023-02-24T09:44:57.269Z,97164.00
2023-02-24T09:47:41.263Z,97152.75
2023-02-24T09:50:55.100Z,97155.50
2023-02-24T09:53:19.618Z,97157.31
2023-02-24T09:56:06.028Z,97158.41
2023-02-24T09:58:48.718Z,97153.59
2023-02-24T10:01:33.726Z,97147.75
2023-02-24T10:04:21.470Z,97144.31
2023-02-24T10:06:53.089Z,97130.53
2023-02-24T10:09:28.176Z,97127.16
2023-02-24T10:12:04.656Z,97122.72
2023-02-24T10:14:44.721Z,97119.25
2023-02-24T10:17:25.977Z,97123.44
2023-02-24T10:20:02.950Z,97100.91
2023-02-24T10:22:51.323Z,97107.59
2023-02-24T10:25:44.126Z,97083.97
2023-02-24T10:28:35.935Z,97068.16
2023-02-24T10:31:26.253Z,97066.69
2023-02-24T10:34:01.415Z,97060.56
2023-02-24T10:36:36.835Z,97065.53
2023-02-24T10:39:16.253Z,97070.63
2023-02-24T10:41:48.039Z,97067.13
2023-02-24T10:44:24.894Z,97060.94
2023-02-24T10:47:12.875Z,97058.53
2023-02-24T10:49:57.026Z,97056.34
2023-02-24T10:53:11.623Z,97051.13
2023-02-24T10:55:57.583Z,97054.22
2023-02-24T10:58:45.614Z,97043.19
2023-02-24T11:01:21.658Z,97045.88
2023-02-24T11:04:02.442Z,97043.72
2023-02-24T11:06:53.039Z,97036.13
2023-02-24T11:09:35.866Z,97021.94
2023-02-24T11:12:25.928Z,97013.06
2023-02-24T11:15:15.088Z,97002.91
2023-02-24T11:17:52.515Z,96999.94
2023-02-24T11:20:46.084Z,96982.69
2023-02-24T11:23:20.549Z,96988.28
2023-02-24T11:25:54.175Z,96983.75
2023-02-24T11:28:47.399Z,96986.47
2023-02-24T11:31:29.156Z,96973.66
2023-02-24T11:34:07.278Z,96970.97
2023-02-24T11:36:48.074Z,96973.81
2023-02-24T11:39:42.579Z,96962.19
2023-02-24T11:42:17.778Z,96957.06
2023-02-24T11:44:55.373Z,96954.72
2023-02-24T11:47:30.554Z,96949.16
2023-02-24T11:50:10.822Z,96930.56
2023-02-24T11:52:47.223Z,96942.50
2023-02-24T11:55:23.391Z,96937.84
2023-02-24T11:58:00.057Z,96927.81
2023-02-24T12:00:33.276Z,96920.78
2023-02-24T12:03:14.218Z,96914.66
2023-02-24T12:05:49.459Z,96904.50
2023-02-24T12:08:29.700Z,96917.56
2023-02-24T12:11:05.600Z,96899.78
2023-02-24T12:13:41.193Z,96899.09
2023-02-24T12:16:17.265Z,96890.38
2023-02-24T12:18:53.022Z,96891.25
2023-02-24T12:21:30.962Z,96883.81
2023-02-24T12:24:08.531Z,96871.94
2023-02-24T12:26:48.699Z,96872.22
2023-02-24T12:29:36.612Z,96862.28
2023-02-24T12:32:22.744Z,96861.72
2023-02-24T12:35:04.236Z,96857.06
2023-02-24T12:37:48.852Z,96866.78
2023-02-24T12:40:28.926Z,96853.72
2023-02-24T12:43:08.813Z,96843.25
2023-02-24T12:45:50.513Z,96842.16
2023-02-24T12:48:34.159Z,96834.47
2023-02-24T12:51:07.710Z,96832.44
2023-02-24T12:53:43.811Z,96821.41
2023-02-24T12:56:22.461Z,96825.38
2023-02-24T12:58:58.153Z,96819.75
2023-02-24T13:01:32.852Z,96823.97
2023-02-24T13:04:13.510Z,96812.53
2023-02-24T13:06:54.880Z,96820.19
2023-02-24T13:09:29.474Z,96810.19
2023-02-24T13:12:03.865Z,96805.41
2023-02-24T13:14:36.431Z,96798.69
2023-02-24T13:17:18.476Z,96799.56
2023-02-24T13:19:48.914Z,96793.47
2023-02-24T13:22:29.691Z,96792.66
2023-02-24T13:25:11.797Z,96773.63
2023-02-24T13:27:44.136Z,96770.59
2023-02-24T13:30:27.272Z,96763.41
2023-02-24T13:33:06.374Z,96755.06
2023-02-24T13:35:37.690Z,96737.34
2023-02-24T13:38:27.219Z,96738.69
2023-02-24T13:40:55.925Z,96739.09
2023-02-24T13:43:31.145Z,96722.31
2023-02-24T13:46:04.431Z,96713.06
2023-02-24T13:49:02.316Z,96717.69
2023-02-24T13:51:55.452Z,96697.34
2023-02-24T13:54:49.227Z,96705.47
2023-02-24T13:57:47.813Z,96694.97
2023-02-24T14:00:29.198Z,96692.78
2023-02-24T14:03:00.156Z,96689.56
2023-02-24T14:05:34.207Z,96693.41
2023-02-24T14:08:03.855Z,96691.47
2023-02-24T14:10:35.360Z,96696.78
2023-02-24T14:13:10.501Z,96683.09
2023-02-24T14:15:44.502Z,96688.88
2023-02-24T14:18:22.573Z,96680.47
2023-02-24T14:20:53.932Z,96674.47
2023-02-24T14:23:24.755Z,96691.56
2023-02-24T14:25:58.977Z,96685.13
2023-02-24T14:28:32.500Z,96681.78
2023-02-24T14:31:10.123Z,96672.09
2023-02-24T14:33:42.415Z,96681.31
2023-02-24T14:36:20.832Z,96674.22
2023-02-24T14:39:01.216Z,96675.00
2023-02-24T14:41:30.098Z,96656.09
2023-02-24T14:43:58.928Z,96652.53
2023-02-24T14:46:28.500Z,96644.84
2023-02-24T14:48:58.642Z,96654.56
2023-02-24T14:51:32.186Z,96645.94
2023-02-24T14:54:05.201Z,96635.00
2023-02-24T14:56:36.864Z,96654.25
2023-02-24T14:59:10.069Z,96644.00
2023-02-24T15:01:41.759Z,96639.72
2023-02-24T15:04:16.672Z,96636.38
2023-02-24T15:06:51.237Z,96623.13
2023-02-24T15:09:23.932Z,96625.81
2023-02-24T15:11:56.283Z,96608.31
2023-02-24T15:14:28.325Z,96620.09
2023-02-24T15:17:01.616Z,96613.19
2023-02-24T15:19:37.446Z,96610.59
2023-02-24T15:22:20.574Z,96605.88
2023-02-24T15:24:49.086Z,96603.94
2023-02-24T15:27:29.661Z,96601.22
2023-02-24T15:30:04.169Z,96586.28
2023-02-24T15:32:36.722Z,96602.00
2023-02-24T15:35:08.136Z,96598.38
2023-02-24T15:37:45.551Z,96589.84
2023-02-24T15:40:22.456Z,96598.44
2023-02-24T15:42:53.242Z,96591.88
2023-02-24T15:45:32.721Z,96581.97
2023-02-24T15:48:04.683Z,96575.22
2023-02-24T15:50:34.139Z,96574.19
2023-02-24T15:53:10.077Z,96565.81
2023-02-24T15:55:39.363Z,96573.06
2023-02-24T15:58:08.255Z,96571.53
2023-02-24T16:00:36.856Z,96575.28
2023-02-24T16:03:06.060Z,96554.00
2023-02-24T16:05:34.861Z,96566.53
2023-02-24T16:08:05.324Z,96566.47
2023-02-24T16:10:35.297Z,96564.97
2023-02-24T16:13:04.385Z,96551.34
2023-02-24T16:15:40.861Z,96558.00
2023-02-24T16:18:22.061Z,96560.13
2023-02-24T16:20:54.915Z,96560.06
2023-02-24T16:23:27.693Z,96551.75
2023-02-24T16:25:58.486Z,96551.63
2023-02-24T16:28:30.819Z,96558.38
2023-02-24T16:30:59.786Z,96556.84
2023-02-24T16:33:32.050Z,96549.25
2023-02-24T16:36:11.717Z,96554.31
2023-02-24T16:38:43.898Z,96554.31
2023-02-24T16:41:14.047Z,96553.81
2023-02-24T16:43:43.122Z,96557.06
2023-02-24T16:46:18.054Z,96547.00
2023-02-24T16:48:50.226Z,96549.56
2023-02-24T16:51:21.164Z,96548.81
2023-02-24T16:53:51.071Z,96557.25
2023-02-24T16:56:20.149Z,96547.16
2023-02-24T16:58:49.182Z,96548.81
2023-02-24T17:01:21.999Z,96538.69
2023-02-24T17:03:54.406Z,96540.47
2023-02-24T17:06:25.142Z,96539.00
2023-02-24T17:08:57.527Z,96544.84
2023-02-24T17:11:30.244Z,96532.53
2023-02-24T17:14:00.303Z,96534.44
2023-02-24T17:16:29.395Z,96532.25
2023-02-24T17:18:59.091Z,96545.53
2023-02-24T17:21:28.315Z,96543.72
2023-02-24T17:23:59.006Z,96547.19
2023-02-24T17:26:28.372Z,96544.81
2023-02-24T17:28:57.469Z,96544.03
2023-02-24T17:31:28.743Z,96525.91
2023-02-24T17:33:58.912Z,96539.28
2023-02-24T17:36:28.622Z,96531.97
2023-02-24T17:38:59.293Z,96538.31
2023-02-24T17:41:29.425Z,96535.91
2023-02-24T17:44:00.635Z,96535.19
2023-02-24T17:46:30.524Z,96530.91
2023-02-24T17:49:00.509Z,96537.22
2023-02-24T17:51:30.026Z,96516.41
2023-02-24T17:54:02.157Z,96537.47
2023-02-24T17:56:34.207Z,96540.22
2023-02-24T17:59:02.908Z,96533.53
2023-02-24T18:01:31.646Z,96539.63
2023-02-24T18:04:00.843Z,96533.66
2023-02-24T18:06:29.279Z,96530.25
2023-02-24T18:08:57.611Z,96531.28
2023-02-24T18:11:28.414Z,96533.91
2023-02-24T18:14:00.492Z,96534.78
2023-02-24T18:16:30.420Z,96531.47
2023-02-24T18:18:59.322Z,96534.88
2023-02-24T18:21:28.432Z,96536.16
2023-02-24T18:23:57.763Z,96530.22
2023-02-24T18:26:28.391Z,96527.97
2023-02-24T18:28:59.075Z,96527.88
2023-02-24T18:31:29.772Z,96530.44
2023-02-24T18:33:59.372Z,96532.31
2023-02-24T18:36:29.608Z,96531.38
2023-02-24T18:38:59.470Z,96527.22
2023-02-24T18:41:29.529Z,96529.00
2023-02-24T18:44:03.837Z,96536.00
2023-02-24T18:46:32.907Z,96535.25
2023-02-24T18:49:02.234Z,96522.09
2023-02-24T18:51:31.774Z,96530.59
2023-02-24T18:54:03.258Z,96529.34
2023-02-24T18:56:36.020Z,96533.75
2023-02-24T18:59:05.732Z,96531.13
2023-02-24T19:01:39.812Z,96533.75
2023-02-24T19:04:10.038Z,96544.28
2023-02-24T19:06:47.276Z,96550.97
2023-02-24T19:09:16.014Z,96545.03
2023-02-24T19:11:46.436Z,96536.03
2023-02-24T19:14:15.785Z,96547.03
2023-02-24T19:16:45.554Z,96545.50
2023-02-24T19:19:19.359Z,96555.81
2023-02-24T19:21:48.916Z,96541.91
2023-02-24T19:24:19.041Z,96557.44
2023-02-24T19:26:51.498Z,96556.00
2023-02-24T19:29:21.112Z,96531.91
2023-02-24T19:31:54.281Z,96562.31
2023-02-24T19:34:23.898Z,96560.84
2023-02-24T19:36:53.946Z,96565.47
2023-02-24T19:39:22.881Z,96562.34
2023-02-24T19:41:55.349Z,96568.69
2023-02-24T19:44:26.481Z,96577.63
2023-02-24T19:46:56.398Z,96585.94
2023-02-24T19:49:25.292Z,96585.56
2023-02-24T19:51:55.468Z,96593.75
2023-02-24T19:54:25.189Z,96614.56
2023-02-24T19:56:57.901Z,96622.66
2023-02-24T19:59:27.804Z,96622.63
2023-02-24T20:01:57.712Z,96621.25
2023-02-24T20:04:29.522Z,96608.09
2023-02-24T20:06:58.722Z,96634.34
2023-02-24T20:09:28.990Z,96643.69
2023-02-24T20:12:02.425Z,96647.16
2023-02-24T20:14:33.900Z,96633.03
2023-02-24T20:17:03.184Z,96648.31
2023-02-24T20:19:34.719Z,96654.22
2023-02-24T20:22:07.521Z,96656.53
2023-02-24T20:24:37.633Z,96666.88
2023-02-24T20:27:08.072Z,96658.53
2023-02-24T20:29:37.377Z,96651.91
2023-02-24T20:32:06.271Z,96658.94
2023-02-24T20:34:37.487Z,96670.88
2023-02-24T20:37:08.903Z,96653.56
2023-02-24T20:39:37.585Z,96660.38
2023-02-24T20:42:08.240Z,96657.03
2023-02-24T20:44:38.787Z,96661.34
2023-02-24T20:47:08.401Z,96653.78
2023-02-24T20:49:37.368Z,96676.69
2023-02-24T20:52:06.644Z,96651.44
2023-02-24T20:54:35.591Z,96653.22
2023-02-24T20:57:09.391Z,96653.19
2023-02-24T20:59:43.992Z,96643.97
2023-02-24T21:02:17.703Z,96642.56
2023-02-24T21:04:48.156Z,96654.41
2023-02-24T21:07:19.731Z,96639.25
2023-02-24T21:09:56.634Z,96659.22
2023-02-24T21:12:37.419Z,96655.88
2023-02-24T21:15:08.508Z,96657.41
2023-02-24T21:17:38.436Z,96652.38
2023-02-24T21:20:11.712Z,96641.53
2023-02-24T21:22:43.366Z,96655.84
2023-02-24T21:25:13.727Z,96644.03
2023-02-24T21:27:49.098Z,96651.59
2023-02-24T21:30:20.797Z,96647.53
2023-02-24T21:32:55.629Z,96648.22
2023-02-24T21:35:26.401Z,96648.22
2023-02-24T21:37:56.904Z,96640.66
2023-02-24T21:40:27.042Z,96633.78
2023-02-24T21:42:57.779Z,96634.56
2023-02-24T21:45:29.134Z,96631.97
2023-02-24T21:48:09.831Z,96635.28
2023-02-24T21:50:41.854Z,96634.56
2023-02-24T21:53:19.534Z,96629.53
2023-02-24T21:55:49.806Z,96636.25
2023-02-24T21:58:20.193Z,96635.53
2023-02-24T22:00:52.163Z,96634.84
2023-02-24T22:03:21.198Z,96633.09
2023-02-24T22:05:53.280Z,96635.63
2023-02-24T22:08:22.943Z,96633.00
2023-02-24T22:11:01.795Z,96630.50
2023-02-24T22:13:35.269Z,96633.88
2023-02-24T22:16:09.577Z,96630.44
2023-02-24T22:18:44.050Z,96629.53
2023-02-24T22:21:22.550Z,96623.16
2023-02-24T22:23:54.579Z,96633.03
2023-02-24T22:26:28.511Z,96636.47
2023-02-24T22:29:05.241Z,96636.63
2023-02-24T22:31:38.421Z,96642.41
2023-02-24T22:34:11.783Z,96631.44
2023-02-24T22:36:42.379Z,96627.28
2023-02-24T22:39:17.177Z,96623.91
2023-02-24T22:41:48.494Z,96621.38
2023-02-24T22:44:27.665Z,96618.66
2023-02-24T22:46:57.645Z,96629.69
2023-02-24T22:49:28.116Z,96621.47
2023-02-24T22:51:59.883Z,96632.38
2023-02-24T22:54:29.254Z,96630.69
2023-02-24T22:56:59.140Z,96609.69
2023-02-24T22:59:31.340Z,96619.81
2023-02-24T23:02:00.373Z,96617.16
2023-02-24T23:04:32.058Z,96627.19
2023-02-24T23:07:06.668Z,96613.69
2023-02-24T23:09:35.496Z,96623.78
2023-02-24T23:12:07.131Z,96625.44
2023-02-24T23:14:39.050Z,96618.66
2023-02-24T23:17:08.741Z,96623.69
2023-02-24T23:19:39.107Z,96627.19
2023-02-24T23:22:09.787Z,96617.88
2023-02-24T23:24:42.280Z,96634.56
2023-02-24T23:27:15.465Z,96632.84
2023-02-24T23:29:46.710Z,96634.56
2023-02-24T23:32:18.834Z,96626.09
2023-02-24T23:34:50.940Z,96631.09
2023-02-24T23:37:21.099Z,96621.84
2023-02-24T23:39:54.030Z,96636.00
2023-02-24T23:42:25.284Z,96629.28
2023-02-24T23:44:59.639Z,96619.13
2023-02-24T23:47:34.646Z,96632.53
2023-02-24T23:50:04.182Z,96631.59
2023-02-24T23:52:36.995Z,96637.56
2023-02-24T23:55:07.195Z,96632.44
2023-02-24T23:57:39.637Z,96640.03
